createdAt,value
2022-09-06T00:04:50.752Z,102034.73
2022-09-06T00:10:15.702Z,102024.98
2022-09-06T00:15:28.364Z,102024.13
2022-09-06T00:20:42.592Z,102026.05
2022-09-06T00:26:04.600Z,102025.18
2022-09-06T00:31:23.618Z,102023.70
2022-09-06T00:36:34.425Z,102029.71
2022-09-06T00:41:53.798Z,102030.84
2022-09-06T00:47:00.022Z,102024.08
2022-09-06T00:52:27.567Z,102019.66
2022-09-06T00:57:54.209Z,102017.56
2022-09-06T01:03:11.571Z,102015.24
2022-09-06T01:08:28.050Z,102018.50
2022-09-06T01:13:50.654Z,102010.04
2022-09-06T01:19:05.535Z,102008.94
2022-09-06T01:24:32.340Z,102007.43
2022-09-06T01:29:49.819Z,102007.02
2022-09-06T01:35:13.891Z,102009.09
2022-09-06T01:40:28.119Z,102006.52
2022-09-06T01:45:59.257Z,102002.42
2022-09-06T01:51:31.101Z,101997.25
2022-09-06T01:56:51.918Z,101998.54
2022-09-06T02:02:04.070Z,101995.33
2022-09-06T02:07:22.261Z,101990.29
2022-09-06T02:12:51.510Z,101987.84
2022-09-06T02:18:19.810Z,101989.30
2022-09-06T02:23:40.809Z,101990.74
2022-09-06T02:29:06.282Z,101991.13
2022-09-06T02:34:21.401Z,101994.37
2022-09-06T02:39:47.577Z,101987.69
2022-09-06T02:44:53.885Z,101980.04
2022-09-06T02:49:59.670Z,101982.64
2022-09-06T02:55:06.168Z,101974.08
2022-09-06T03:00:13.299Z,101964.89
2022-09-06T03:05:30.901Z,101963.30
2022-09-06T03:10:53.434Z,101962.42
2022-09-06T03:16:20.346Z,101958.71
2022-09-06T03:21:26.788Z,101966.59
2022-09-06T03:26:35.649Z,101967.41
2022-09-06T03:31:41.618Z,101966.23
2022-09-06T03:36:47.446Z,101963.70
2022-09-06T03:42:05.604Z,101960.96
2022-09-06T03:47:11.921Z,101952.48
2022-09-06T03:52:38.441Z,101949.97
2022-09-06T03:57:46.076Z,101954.52
2022-09-06T04:03:02.319Z,101958.96
2022-09-06T04:08:11.760Z,101962.73
2022-09-06T04:13:38.236Z,101953.65
2022-09-06T04:19:05.585Z,101946.05
2022-09-06T04:24:19.334Z,101948.80
2022-09-06T04:29:25.625Z,101951.70
2022-09-06T04:34:31.758Z,101947.69
2022-09-06T04:39:48.536Z,101947.05
2022-09-06T04:44:54.188Z,101942.40
2022-09-06T04:50:00.171Z,101949.74
2022-09-06T04:55:17.660Z,101948.89
2022-09-06T05:00:50.667Z,101950.83
2022-09-06T05:06:32.535Z,101947.83
2022-09-06T05:12:11.648Z,101943.52
2022-09-06T05:17:17.336Z,101950.29
2022-09-06T05:22:25.539Z,101951.63
2022-09-06T05:27:43.749Z,101960.11
2022-09-06T05:32:52.373Z,101959.94
2022-09-06T05:37:58.412Z,101959.19
2022-09-06T05:43:04.502Z,101962.16
2022-09-06T05:48:36.090Z,101966.35
2022-09-06T05:54:00.847Z,101968.03
2022-09-06T05:59:19.668Z,101964.88
2022-09-06T06:04:25.620Z,101963.97
2022-09-06T06:09:33.622Z,101960.48
2022-09-06T06:14:45.021Z,101955.27
2022-09-06T06:19:50.871Z,101950.04
2022-09-06T06:25:17.260Z,101946.92
2022-09-06T06:30:23.459Z,101946.64
2022-09-06T06:35:38.298Z,101944.38
2022-09-06T06:41:00.089Z,101941.46
2022-09-06T06:46:08.983Z,101936.75
2022-09-06T06:51:38.310Z,101933.39
2022-09-06T06:57:04.589Z,101930.31
2022-09-06T07:02:19.924Z,101930.74
2022-09-06T07:07:31.010Z,101932.43
2022-09-06T07:12:42.488Z,101934.61
2022-09-06T07:17:57.941Z,101933.36
2022-09-06T07:28:31.799Z,101938.77
2022-09-06T07:33:46.636Z,101940.30
2022-09-06T07:38:52.516Z,101931.65
2022-09-06T07:43:58.485Z,101930.76
2022-09-06T07:49:05.591Z,101931.41
2022-09-06T07:54:30.069Z,101931.69
2022-09-06T07:59:42.797Z,101928.17
2022-09-06T08:04:53.769Z,101930.88
2022-09-06T08:09:59.383Z,101929.27
2022-09-06T08:15:05.599Z,101933.33
2022-09-06T08:20:14.381Z,101936.46
2022-09-06T08:25:28.937Z,101934.46
2022-09-06T08:30:35.546Z,101923.85
2022-09-06T08:35:41.617Z,101917.50
2022-09-06T08:40:47.792Z,101909.10
2022-09-06T08:45:57.723Z,101909.81
2022-09-06T08:51:16.645Z,101908.40
2022-09-06T08:56:25.094Z,101908.55
2022-09-06T09:01:35.191Z,101907.39
2022-09-06T09:06:41.228Z,101909.80
2022-09-06T09:11:52.375Z,101903.89
2022-09-06T09:17:06.187Z,101904.70
2022-09-06T09:22:12.190Z,101901.54
2022-09-06T09:27:20.510Z,101898.95
2022-09-06T09:32:32.355Z,101891.61
2022-09-06T09:42:51.436Z,101873.98
2022-09-06T09:48:17.013Z,101867.82
2022-09-06T09:53:31.417Z,101866.52
2022-09-06T09:58:41.095Z,101858.05
2022-09-06T10:09:31.306Z,101845.60
2022-09-06T10:14:46.373Z,101842.45
2022-09-06T10:19:54.035Z,101834.34
2022-09-06T10:25:12.055Z,101828.10
2022-09-06T10:30:20.820Z,101826.20
2022-09-06T10:35:27.994Z,101824.25
2022-09-06T10:40:42.808Z,101825.83
2022-09-06T10:45:53.027Z,101811.98
2022-09-06T10:51:14.230Z,101813.54
2022-09-06T10:56:26.103Z,101817.27
2022-09-06T11:01:37.528Z,101813.05
2022-09-06T11:06:45.528Z,101816.15
2022-09-06T11:11:54.567Z,101818.55
2022-09-06T11:17:05.233Z,101803.91
2022-09-06T11:22:33.769Z,101798.91
2022-09-06T11:27:40.623Z,101795.95
2022-09-06T11:32:51.377Z,101797.01
2022-09-06T11:38:02.630Z,101791.45
2022-09-06T11:43:12.552Z,101783.66
2022-09-06T11:48:36.674Z,101779.55
2022-09-06T11:54:06.353Z,101775.22
2022-09-06T11:59:28.017Z,101768.48
2022-09-06T12:04:51.054Z,101762.86
2022-09-06T12:09:56.955Z,101754.83
2022-09-06T12:15:22.662Z,101750.27
2022-09-06T12:20:45.737Z,101745.88
2022-09-06T12:26:01.163Z,101742.31
2022-09-06T12:31:28.558Z,101735.04
2022-09-06T12:36:34.822Z,101735.04
2022-09-06T12:41:44.793Z,101724.75
2022-09-06T12:46:52.340Z,101727.97
2022-09-06T12:52:08.870Z,101720.80
2022-09-06T12:57:16.631Z,101716.86
2022-09-06T13:02:38.552Z,101702.14
2022-09-06T13:07:46.595Z,101694.09
2022-09-06T13:12:53.379Z,101689.88
2022-09-06T13:18:15.024Z,101687.81
2022-09-06T13:23:22.780Z,101682.30
2022-09-06T13:28:37.911Z,101676.02
2022-09-06T13:33:43.568Z,101677.11
2022-09-06T13:38:49.424Z,101673.64
2022-09-06T13:44:04.367Z,101676.27
2022-09-06T13:49:17.910Z,101676.41
2022-09-06T13:54:27.395Z,101673.88
2022-09-06T13:59:33.715Z,101667.16
2022-09-06T14:04:49.002Z,101654.56
2022-09-06T14:10:08.439Z,101649.96
2022-09-06T14:15:21.887Z,101645.98
2022-09-06T14:20:30.931Z,101641.14
2022-09-06T14:25:37.721Z,101642.80
2022-09-06T14:30:43.612Z,101644.96
2022-09-06T14:36:11.164Z,101640.20
2022-09-06T14:41:18.372Z,101638.59
2022-09-06T14:46:25.908Z,101636.45
2022-09-06T14:51:32.255Z,101639.91
2022-09-06T14:56:40.336Z,101639.05
2022-09-06T15:01:46.204Z,101636.89
2022-09-06T15:06:52.258Z,101631.77
2022-09-06T15:11:58.095Z,101624.27
2022-09-06T15:17:06.050Z,101619.91
2022-09-06T15:22:11.877Z,101621.27
2022-09-06T15:27:19.140Z,101615.77
2022-09-06T15:32:32.809Z,101616.60
2022-09-06T15:37:38.559Z,101609.27
2022-09-06T15:42:45.208Z,101607.70
2022-09-06T15:47:51.245Z,101600.30
2022-09-06T15:52:57.208Z,101592.71
2022-09-06T15:58:03.221Z,101588.81
2022-09-06T16:03:09.156Z,101583.01
2022-09-06T16:08:14.949Z,101575.19
2022-09-06T16:13:33.267Z,101572.45
2022-09-06T16:18:39.990Z,101573.21
2022-09-06T16:23:51.289Z,101572.80
2022-09-06T16:28:56.925Z,101570.56
2022-09-06T16:34:03.266Z,101568.08
2022-09-06T16:39:09.680Z,101568.36
2022-09-06T16:44:17.006Z,101566.08
2022-09-06T16:49:23.169Z,101563.10
2022-09-06T16:54:29.513Z,101562.63
2022-09-06T16:59:35.623Z,101559.19
2022-09-06T17:04:41.506Z,101555.59
2022-09-06T17:09:51.256Z,101553.67
2022-09-06T17:14:56.858Z,101554.16
2022-09-06T17:20:12.874Z,101554.36
2022-09-06T17:25:25.915Z,101554.84
2022-09-06T17:30:40.051Z,101558.15
2022-09-06T17:35:46.103Z,101561.77
2022-09-06T17:41:01.316Z,101565.60
2022-09-06T17:46:07.678Z,101573.23
2022-09-06T17:51:21.274Z,101573.52
2022-09-06T17:56:27.068Z,101574.41
2022-09-06T18:01:36.995Z,101580.22
2022-09-06T18:06:44.736Z,101581.85
2022-09-06T18:11:52.725Z,101584.52
2022-09-06T18:17:09.923Z,101587.19
2022-09-06T18:22:18.787Z,101585.59
2022-09-06T18:27:36.337Z,101577.98
2022-09-06T18:32:47.784Z,101579.85
2022-09-06T18:38:06.041Z,101573.95
2022-09-06T18:43:37.611Z,101574.30
2022-09-06T18:48:49.133Z,101574.06
2022-09-06T18:53:57.035Z,101576.30
2022-09-06T18:59:07.853Z,101576.05
2022-09-06T19:04:29.562Z,101572.89
2022-09-06T19:09:42.269Z,101571.88
2022-09-06T19:15:03.949Z,101570.34
2022-09-06T19:20:33.660Z,101569.73
2022-09-06T19:25:57.585Z,101568.51
2022-09-06T19:31:17.938Z,101564.75
2022-09-06T19:36:46.142Z,101562.84
2022-09-06T19:41:55.438Z,101564.26
2022-09-06T19:47:09.323Z,101557.60
2022-09-06T19:52:37.601Z,101553.70
2022-09-06T19:57:59.815Z,101550.41
2022-09-06T20:03:13.349Z,101547.58
2022-09-06T20:08:24.929Z,101546.81
2022-09-06T20:13:37.593Z,101548.14
2022-09-06T20:19:28.353Z,101543.17
2022-09-06T20:24:42.615Z,101539.79
2022-09-06T20:29:49.926Z,101541.91
2022-09-06T20:35:07.485Z,101539.95
2022-09-06T20:40:29.407Z,101540.88
2022-09-06T20:45:39.356Z,101534.95
2022-09-06T20:51:08.708Z,101540.58
2022-09-06T20:56:40.630Z,101536.51
2022-09-06T21:01:59.771Z,101541.01
2022-09-06T21:07:25.002Z,101539.69
2022-09-06T21:13:01.004Z,101543.86
2022-09-06T21:18:39.106Z,101539.75
2022-09-06T21:24:03.938Z,101540.88
2022-09-06T21:29:34.890Z,101534.41
2022-09-06T21:35:16.270Z,101529.56
2022-09-06T21:40:31.812Z,101532.60
2022-09-06T21:45:51.506Z,101532.23
2022-09-06T21:51:00.837Z,101531.17
2022-09-06T21:56:21.026Z,101535.59
2022-09-06T22:01:45.095Z,101536.14
2022-09-06T22:07:02.262Z,101537.27
2022-09-06T22:12:14.196Z,101531.20
2022-09-06T22:17:28.069Z,101531.16
2022-09-06T22:23:00.354Z,101526.35
2022-09-06T22:28:24.265Z,101523.56
2022-09-06T22:33:41.289Z,101516.75
2022-09-06T22:38:58.620Z,101517.73
2022-09-06T22:44:09.307Z,101511.39
2022-09-06T22:49:16.855Z,101506.09
2022-09-06T22:54:33.519Z,101503.48
2022-09-06T22:59:43.109Z,101501.78
2022-09-06T23:05:09.304Z,101502.73
2022-09-06T23:10:21.947Z,101502.99
2022-09-06T23:15:42.287Z,101503.94
2022-09-06T23:20:49.295Z,101502.35
2022-09-06T23:25:56.053Z,101502.60
2022-09-06T23:31:09.275Z,101493.38
2022-09-06T23:36:19.059Z,101487.48
2022-09-06T23:41:26.324Z,101487.27
2022-09-06T23:46:55.778Z,101485.16
2022-09-06T23:52:17.073Z,101479.15
2022-09-06T23:57:33.130Z,101474.77
